Time;durP1;ratioP1;P1;durP2;ratioP2;P2;SDS_P1;SDS_P2;PMS_P1;PMS_P2;Temp;Humidity;BMP_temperature;BMP_pressure;BME280_temperature;BME280_humidity;BME280_pressure;Samples;Min_cycle;Max_cycle;Signal;HPM_P1;HPM_P2
2022/10/03 00:00:21;;;;;;;3.05;1.38;;;;;;;;;;5017599;28;20041;-57
2022/10/03 00:02:47;;;;;;;2.40;1.10;;;;;;;;;;5014115;28;20052;-56
2022/10/03 00:05:29;;;;;;;2.92;1.17;;;;;;;;;;5014733;28;20030;-56
2022/10/03 00:08:04;;;;;;;3.38;1.45;;;;;;;;;;5014318;28;20091;-56
2022/10/03 00:10:29;;;;;;;2.55;1.20;;;;;;;;;;5015970;28;20535;-56
2022/10/03 00:12:57;;;;;;;2.60;1.00;;;;;;;;;;5013543;28;20026;-56
2022/10/03 00:15:25;;;;;;;3.33;1.02;;;;;;;;;;5025044;28;20079;-57
2022/10/03 00:17:55;;;;;;;2.40;1.02;;;;;;;;;;5014113;28;20022;-56
2022/10/03 00:20:39;;;;;;;3.28;1.20;;;;;;;;;;5011866;28;20053;-56
2022/10/03 00:23:07;;;;;;;2.33;1.15;;;;;;;;;;5013758;28;20509;-56
2022/10/03 00:25:38;;;;;;;3.25;1.30;;;;;;;;;;5016114;28;20034;-54
2022/10/03 00:28:08;;;;;;;2.67;1.25;;;;;;;;;;5017844;28;20029;-56
2022/10/03 00:30:44;;;;;;;2.80;1.20;;;;;;;;;;5022552;28;20021;-56
2022/10/03 00:33:19;;;;;;;2.35;1.30;;;;;;;;;;5012824;28;20030;-56
2022/10/03 00:35:56;;;;;;;2.33;1.20;;;;;;;;;;5014421;28;20534;-54
2022/10/03 00:38:21;;;;;;;6.18;1.30;;;;;;;;;;5013912;28;20072;-56
2022/10/03 00:40:55;;;;;;;3.05;1.42;;;;;;;;;;5020086;28;20045;-56
2022/10/03 00:43:20;;;;;;;;;;;;;;;;;;5013942;28;20482;-56
2022/10/03 00:46:09;;;;;;;2.00;1.10;;;;;;;;;;5026225;28;19911;-56
2022/10/03 00:48:34;;;;;;;2.72;1.20;;;;;;;;;;5005934;28;20368;-57
2022/10/03 00:51:18;;;;;;;3.25;1.30;;;;;;;;;;5016810;28;20062;-56
2022/10/03 00:53:58;;;;;;;2.75;1.15;;;;;;;;;;5014406;28;20045;-56
2022/10/03 00:56:29;;;;;;;2.72;1.40;;;;;;;;;;5018507;28;20532;-57
2022/10/03 00:59:08;;;;;;;3.05;1.35;;;;;;;;;;5018000;28;20420;-55
2022/10/03 01:01:35;;;;;;;2.42;1.33;;;;;;;;;;5015500;28;20030;-56
2022/10/03 01:04:12;;;;;;;2.72;1.13;;;;;;;;;;5014616;28;20474;-56
2022/10/03 01:06:44;;;;;;;4.00;1.50;;;;;;;;;;5013390;28;20030;-56
2022/10/03 01:09:16;;;;;;;3.05;1.20;;;;;;;;;;5015539;28;20026;-55
2022/10/03 01:11:50;;;;;;;3.67;1.40;;;;;;;;;;5013986;28;20425;-56
2022/10/03 01:14:18;;;;;;;2.60;1.20;;;;;;;;;;5013278;28;20117;-56
2022/10/03 01:16:50;;;;;;;2.22;1.20;;;;;;;;;;5014749;28;20041;-56
2022/10/03 01:19:31;;;;;;;2.65;1.15;;;;;;;;;;5013457;28;20168;-56
2022/10/03 01:22:16;;;;;;;2.53;1.30;;;;;;;;;;5014327;28;20069;-56
2022/10/03 01:24:44;;;;;;;2.72;1.20;;;;;;;;;;5015474;28;20041;-56
2022/10/03 01:27:12;;;;;;;4.00;1.20;;;;;;;;;;5018359;28;20096;-56
2022/10/03 01:32:35;;;;;;;5.10;1.30;;;;;;;;;;5013109;28;20032;-55
2022/10/03 01:35:09;;;;;;;2.60;1.10;;;;;;;;;;5023004;28;20033;-56
2022/10/03 01:37:42;;;;;;;3.30;1.30;;;;;;;;;;5007468;28;20033;-56
2022/10/03 01:40:19;;;;;;;2.35;1.20;;;;;;;;;;5024760;28;20057;-56
2022/10/03 01:42:54;;;;;;;2.90;1.20;;;;;;;;;;5016869;28;20121;-56
2022/10/03 01:45:25;;;;;;;4.28;1.15;;;;;;;;;;5020965;28;20492;-56
2022/10/03 01:47:57;;;;;;;1.77;1.00;;;;;;;;;;5020946;28;20117;-56
2022/10/03 01:50:24;;;;;;;1.50;0.82;;;;;;;;;;5018724;28;20080;-57
2022/10/03 01:53:12;;;;;;;1.80;1.15;;;;;;;;;;5016252;28;20030;-56
2022/10/03 01:55:47;;;;;;;2.88;0.90;;;;;;;;;;5018460;28;20432;-57
2022/10/03 01:58:25;;;;;;;2.28;1.10;;;;;;;;;;5017650;28;20030;-56
2022/10/03 02:00:57;;;;;;;2.33;0.93;;;;;;;;;;5017758;28;20022;-56
2022/10/03 02:03:26;;;;;;;2.03;1.10;;;;;;;;;;5016059;28;20548;-56
2022/10/03 02:06:08;;;;;;;2.10;1.17;;;;;;;;;;5017425;28;20036;-56
2022/10/03 02:08:36;;;;;;;2.22;1.20;;;;;;;;;;5011300;28;20080;-56
2022/10/03 02:11:04;;;;;;;1.73;0.90;;;;;;;;;;5022369;28;20029;-56
2022/10/03 02:13:43;;;;;;;2.45;1.13;;;;;;;;;;5017781;28;20034;-56
2022/10/03 02:16:27;;;;;;;2.53;1.10;;;;;;;;;;5025099;28;20041;-56
2022/10/03 02:19:02;;;;;;;4.53;1.20;;;;;;;;;;5005256;28;20032;-55
2022/10/03 02:21:30;;;;;;;2.30;1.13;;;;;;;;;;5019820;28;20065;-56
2022/10/03 02:24:02;;;;;;;3.05;1.23;;;;;;;;;;5016183;28;20096;-55
2022/10/03 02:26:48;;;;;;;2.45;1.10;;;;;;;;;;5020629;28;20038;-54
2022/10/03 02:29:32;;;;;;;2.30;1.23;;;;;;;;;;5015685;28;20050;-57
2022/10/03 02:32:28;;;;;;;2.15;1.08;;;;;;;;;;5022553;28;20033;-56
2022/10/03 02:35:10;;;;;;;2.42;1.00;;;;;;;;;;5018097;28;20026;-56
2022/10/03 02:38:01;;;;;;;2.38;0.95;;;;;;;;;;5015423;28;20034;-55
2022/10/03 02:40:33;;;;;;;2.22;1.20;;;;;;;;;;5005694;28;20042;-56
2022/10/03 02:43:10;;;;;;;2.33;0.98;;;;;;;;;;5005654;28;20038;-56
2022/10/03 02:45:47;;;;;;;2.65;1.20;;;;;;;;;;5019862;28;20075;-56
2022/10/03 02:48:13;;;;;;;2.50;1.05;;;;;;;;;;5023803;28;20028;-56
2022/10/03 02:50:38;;;;;;;1.98;1.05;;;;;;;;;;5025771;28;20450;-56
2022/10/03 02:53:23;;;;;;;2.08;0.90;;;;;;;;;;5015736;28;20483;-55
2022/10/03 02:55:51;;;;;;;2.67;1.25;;;;;;;;;;5026153;28;20103;-57
2022/10/03 02:58:35;;;;;;;3.28;1.00;;;;;;;;;;5016548;28;20168;-56
2022/10/03 03:01:15;;;;;;;2.05;0.95;;;;;;;;;;5022630;28;20405;-56
2022/10/03 03:03:53;;;;;;;2.00;1.00;;;;;;;;;;5014018;28;20540;-56
2022/10/03 03:06:19;;;;;;;2.03;1.05;;;;;;;;;;5016295;28;20033;-57
2022/10/03 03:08:44;;;;;;;4.72;1.13;;;;;;;;;;5015324;28;20040;-56
2022/10/03 03:11:29;;;;;;;2.17;1.13;;;;;;;;;;5018143;28;20021;-56
2022/10/03 03:14:10;;;;;;;1.80;1.00;;;;;;;;;;5016497;28;20026;-56
2022/10/03 03:16:55;;;;;;;2.58;1.15;;;;;;;;;;5013540;28;20034;-56
2022/10/03 03:19:50;;;;;;;2.70;1.33;;;;;;;;;;5016416;28;20042;-56
2022/10/03 03:22:34;;;;;;;1.92;1.00;;;;;;;;;;5010102;28;20389;-56
2022/10/03 03:25:02;;;;;;;1.70;0.98;;;;;;;;;;5022605;28;20465;-56
2022/10/03 03:27:27;;;;;;;2.38;1.10;;;;;;;;;;5017046;28;20029;-55
2022/10/03 03:29:55;;;;;;;2.08;1.00;;;;;;;;;;5016743;28;20022;-55
2022/10/03 03:32:27;;;;;;;2.20;1.20;;;;;;;;;;5026250;28;20038;-56
2022/10/03 03:34:58;;;;;;;1.90;1.10;;;;;;;;;;5016443;28;20030;-57
2022/10/03 03:37:23;;;;;;;2.13;0.93;;;;;;;;;;5009001;28;20105;-56
2022/10/03 03:39:56;;;;;;;2.50;1.20;;;;;;;;;;5017235;28;20120;-56
2022/10/03 03:42:22;;;;;;;2.22;1.15;;;;;;;;;;5012412;28;20034;-55
2022/10/03 03:44:57;;;;;;;2.72;1.27;;;;;;;;;;5015095;28;20096;-56
2022/10/03 03:47:45;;;;;;;1.95;1.00;;;;;;;;;;5003630;28;20561;-56
2022/10/03 03:50:29;;;;;;;1.88;1.00;;;;;;;;;;5015418;28;20110;-55
2022/10/03 03:53:12;;;;;;;2.63;1.15;;;;;;;;;;5010227;28;20037;-56
2022/10/03 03:55:39;;;;;;;;;;;;;;;;;;5011712;28;20022;-56
2022/10/03 03:58:26;;;;;;;1.95;1.00;;;;;;;;;;5015424;28;20317;-56
2022/10/03 04:01:10;;;;;;;2.30;1.10;;;;;;;;;;5015350;28;20034;-56
2022/10/03 04:03:36;;;;;;;2.20;0.90;;;;;;;;;;5014109;28;20046;-56
2022/10/03 04:06:04;;;;;;;2.60;1.10;;;;;;;;;;5015395;28;20533;-56
2022/10/03 04:08:40;;;;;;;1.90;1.00;;;;;;;;;;5006903;28;20056;-57
2022/10/03 04:11:05;;;;;;;2.05;1.02;;;;;;;;;;5014556;28;20431;-56
2022/10/03 04:13:30;;;;;;;2.88;1.00;;;;;;;;;;5014408;28;20030;-56
2022/10/03 04:15:58;;;;;;;1.88;0.98;;;;;;;;;;5015266;28;20040;-56
2022/10/03 04:21:47;;;;;;;2.00;1.00;;;;;;;;;;5026239;28;20040;-55
2022/10/03 04:24:28;;;;;;;1.90;1.00;;;;;;;;;;5000126;28;20402;-56
2022/10/03 04:27:07;;;;;;;1.88;1.10;;;;;;;;;;5023860;28;20041;-56
2022/10/03 04:29:46;;;;;;;2.45;1.10;;;;;;;;;;5013911;28;20355;-57
2022/10/03 04:32:34;;;;;;;3.17;1.00;;;;;;;;;;5020090;28;20505;-56
2022/10/03 04:35:10;;;;;;;2.05;1.00;;;;;;;;;;5016752;28;20037;-56
2022/10/03 04:37:54;;;;;;;2.53;1.10;;;;;;;;;;5014402;28;20512;-56
2022/10/03 04:40:37;;;;;;;2.33;1.02;;;;;;;;;;5017467;28;20033;-56
2022/10/03 04:43:03;;;;;;;;;;;;;;;;;;5015898;28;20034;-56
2022/10/03 04:45:28;;;;;;;2.90;1.05;;;;;;;;;;5014548;28;19964;-56
2022/10/03 04:48:03;;;;;;;2.22;1.10;;;;;;;;;;5013663;28;20038;-56
2022/10/03 04:50:35;;;;;;;1.92;1.10;;;;;;;;;;5016956;28;20022;-55
2022/10/03 04:53:10;;;;;;;2.78;1.20;;;;;;;;;;5013500;28;20030;-54
2022/10/03 04:56:11;;;;;;;2.17;1.00;;;;;;;;;;5016587;28;20390;-56
2022/10/03 04:58:42;;;;;;;2.50;0.98;;;;;;;;;;5010383;28;20472;-56
2022/10/03 05:01:07;;;;;;;2.15;0.90;;;;;;;;;;5013755;28;20100;-56
2022/10/03 05:03:52;;;;;;;1.50;0.90;;;;;;;;;;5013136;28;20054;-57
2022/10/03 05:06:21;;;;;;;2.10;1.00;;;;;;;;;;5014194;28;20026;-56
2022/10/03 05:08:54;;;;;;;2.75;1.00;;;;;;;;;;5003921;28;20068;-56
2022/10/03 05:11:39;;;;;;;1.52;0.80;;;;;;;;;;5020261;28;20144;-54
2022/10/03 05:14:07;;;;;;;2.17;1.10;;;;;;;;;;5017435;28;20056;-56
2022/10/03 05:17:02;;;;;;;3.95;1.13;;;;;;;;;;5014191;28;20112;-56
2022/10/03 05:19:33;;;;;;;1.90;0.77;;;;;;;;;;5014207;28;20069;-56
2022/10/03 05:22:11;;;;;;;2.70;1.20;;;;;;;;;;5015528;28;20026;-56
2022/10/03 05:24:54;;;;;;;2.03;1.02;;;;;;;;;;5013705;28;20461;-57
2022/10/03 05:27:23;;;;;;;1.90;1.02;;;;;;;;;;5016023;28;20109;-56
2022/10/03 05:29:51;;;;;;;1.77;1.00;;;;;;;;;;5015755;28;20444;-56
2022/10/03 05:32:17;;;;;;;2.17;1.00;;;;;;;;;;5016509;28;20472;-56
2022/10/03 05:34:43;;;;;;;2.05;0.90;;;;;;;;;;5015495;28;20029;-56
2022/10/03 05:37:08;;;;;;;1.67;0.93;;;;;;;;;;5013984;28;20033;-56
2022/10/03 05:39:52;;;;;;;3.38;1.02;;;;;;;;;;5013743;28;20032;-56
2022/10/03 05:42:20;;;;;;;3.47;1.17;;;;;;;;;;5013900;28;20394;-56
2022/10/03 05:44:56;;;;;;;1.75;0.93;;;;;;;;;;5015432;28;20056;-56
2022/10/03 05:47:44;;;;;;;1.77;0.80;;;;;;;;;;5007105;28;20030;-56
2022/10/03 05:50:32;;;;;;;1.88;0.90;;;;;;;;;;5014235;28;20060;-56
2022/10/03 05:53:01;;;;;;;2.10;1.00;;;;;;;;;;5008003;28;20041;-56
2022/10/03 05:55:30;;;;;;;1.55;0.80;;;;;;;;;;5016622;28;20079;-56
2022/10/03 05:58:14;;;;;;;2.50;1.00;;;;;;;;;;5013977;28;20032;-56
2022/10/03 06:00:57;;;;;;;1.95;0.90;;;;;;;;;;5018124;28;20053;-56
2022/10/03 06:03:36;;;;;;;2.00;1.10;;;;;;;;;;5006614;28;20054;-56
2022/10/03 06:06:22;;;;;;;1.67;0.93;;;;;;;;;;5015837;28;20053;-57
2022/10/03 06:09:03;;;;;;;2.03;1.00;;;;;;;;;;5012743;28;20028;-56
2022/10/03 06:11:48;;;;;;;2.63;1.00;;;;;;;;;;5017599;28;20092;-56
2022/10/03 06:14:24;;;;;;;2.35;1.00;;;;;;;;;;5019953;28;20053;-56
2022/10/03 06:17:09;;;;;;;1.92;1.00;;;;;;;;;;5017159;28;20038;-56
2022/10/03 06:19:35;;;;;;;1.50;0.80;;;;;;;;;;5005801;28;20054;-55
2022/10/03 06:22:25;;;;;;;2.17;0.98;;;;;;;;;;5015980;28;20030;-56
2022/10/03 06:25:13;;;;;;;2.10;1.05;;;;;;;;;;5016620;28;20056;-55
2022/10/03 06:27:57;;;;;;;1.85;0.88;;;;;;;;;;5009710;28;20034;-56
2022/10/03 06:30:26;;;;;;;3.10;1.00;;;;;;;;;;5020902;28;20060;-57
2022/10/03 06:33:10;;;;;;;1.67;0.80;;;;;;;;;;5019608;28;20041;-61
2022/10/03 06:35:54;;;;;;;2.08;1.05;;;;;;;;;;5022555;28;20108;-56
2022/10/03 06:38:28;;;;;;;2.95;0.90;;;;;;;;;;5017361;28;20034;-57
2022/10/03 06:40:56;;;;;;;1.58;0.82;;;;;;;;;;5017574;28;20476;-56
2022/10/03 06:43:43;;;;;;;1.92;0.98;;;;;;;;;;5010568;28;20076;-56
2022/10/03 06:46:27;;;;;;;1.67;0.90;;;;;;;;;;5015881;28;20425;-56
2022/10/03 06:48:57;;;;;;;1.48;0.80;;;;;;;;;;5010880;28;20046;-56
2022/10/03 06:51:41;;;;;;;1.60;0.98;;;;;;;;;;5015788;28;20030;-56
2022/10/03 06:54:06;;;;;;;1.90;1.00;;;;;;;;;;5015495;28;20388;-57
2022/10/03 06:56:41;;;;;;;0.85;0.60;;;;;;;;;;5015271;28;20469;-57
2022/10/03 06:59:06;;;;;;;1.75;0.82;;;;;;;;;;5015337;28;20026;-57
2022/10/03 07:01:40;;;;;;;1.70;0.90;;;;;;;;;;5015662;28;20034;-56
2022/10/03 07:04:06;;;;;;;2.85;1.02;;;;;;;;;;5007795;28;20061;-56
2022/10/03 07:06:51;;;;;;;1.80;0.90;;;;;;;;;;5015435;28;20030;-56
2022/10/03 07:09:35;;;;;;;1.70;0.90;;;;;;;;;;5005540;28;20053;-57
2022/10/03 07:12:04;;;;;;;;;;;;;;;;;;5015303;28;20473;-57
2022/10/03 07:14:41;;;;;;;1.42;0.80;;;;;;;;;;5016277;28;19951;-57
2022/10/03 07:17:09;;;;;;;4.78;1.20;;;;;;;;;;5017408;28;20037;-57
2022/10/03 07:19:37;;;;;;;3.90;1.05;;;;;;;;;;5016566;28;20136;-63
2022/10/03 07:22:09;;;;;;;7.28;1.73;;;;;;;;;;5016508;28;20084;-57
2022/10/03 07:24:46;;;;;;;12.88;1.20;;;;;;;;;;5018374;28;20038;-57
2022/10/03 07:27:21;;;;;;;2.42;1.10;;;;;;;;;;5023066;28;20040;-57
2022/10/03 07:29:47;;;;;;;4.03;1.23;;;;;;;;;;5008047;28;20022;-56
2022/10/03 07:32:31;;;;;;;1.95;0.75;;;;;;;;;;5021395;28;20084;-56
2022/10/03 07:35:15;;;;;;;1.58;0.88;;;;;;;;;;5015920;28;20033;-58
2022/10/03 07:40:43;;;;;;;4.43;1.15;;;;;;;;;;5015161;28;20500;-57
2022/10/03 07:43:27;;;;;;;5.90;1.42;;;;;;;;;;5014593;28;20065;-57
2022/10/03 07:46:11;;;;;;;3.67;1.00;;;;;;;;;;5007950;28;20103;-57
2022/10/03 07:48:39;;;;;;;3.25;0.80;;;;;;;;;;5012450;28;20037;-59
2022/10/03 07:51:23;;;;;;;6.55;1.00;;;;;;;;;;5012845;28;20033;-58
2022/10/03 07:54:07;;;;;;;3.63;1.05;;;;;;;;;;5006284;28;20072;-59
2022/10/03 07:56:32;;;;;;;1.77;0.70;;;;;;;;;;5013836;28;20034;-58
2022/10/03 07:59:16;;;;;;;5.85;1.05;;;;;;;;;;5013757;28;20428;-58
2022/10/03 08:01:53;;;;;;;2.25;0.90;;;;;;;;;;5012533;28;20088;-58
2022/10/03 08:04:25;;;;;;;6.45;1.20;;;;;;;;;;5016480;28;20578;-57
2022/10/03 08:06:53;;;;;;;4.97;1.02;;;;;;;;;;5014982;28;20021;-56
2022/10/03 08:09:32;;;;;;;5.88;0.90;;;;;;;;;;5013772;28;20084;-55
2022/10/03 08:12:16;;;;;;;5.03;1.02;;;;;;;;;;5014563;28;20084;-57
2022/10/03 08:14:50;;;;;;;3.42;1.10;;;;;;;;;;5016220;28;20575;-57
2022/10/03 08:17:15;;;;;;;;;;;;;;;;;;5013973;28;20560;-55
2022/10/03 08:20:00;;;;;;;4.35;1.00;;;;;;;;;;5013197;28;20515;-56
2022/10/03 08:22:34;;;;;;;5.72;1.05;;;;;;;;;;5013880;28;20523;-56
2022/10/03 08:25:02;;;;;;;2.90;0.95;;;;;;;;;;5012954;28;20091;-61
2022/10/03 08:27:36;;;;;;;3.53;1.30;;;;;;;;;;5008290;28;20049;-58
2022/10/03 08:30:14;;;;;;;11.18;1.50;;;;;;;;;;5009340;28;20037;-57
2022/10/03 08:32:55;;;;;;;7.40;1.10;;;;;;;;;;5012578;28;20042;-58
2022/10/03 08:35:51;;;;;;;5.95;1.02;;;;;;;;;;5001191;28;20033;-58
2022/10/03 08:38:30;;;;;;;5.40;1.02;;;;;;;;;;5006296;28;20038;-57
2022/10/03 08:41:14;;;;;;;8.43;1.52;;;;;;;;;;5007420;28;20101;-57
2022/10/03 08:43:58;;;;;;;14.30;1.25;;;;;;;;;;5010417;28;20041;-65
2022/10/03 08:46:42;;;;;;;5.55;1.10;;;;;;;;;;5010283;28;20026;-60
2022/10/03 08:49:07;;;;;;;;;;;;;;;;;;5004952;28;20041;-58
2022/10/03 08:51:51;;;;;;;4.55;1.25;;;;;;;;;;5010214;28;19905;-57
2022/10/03 08:54:28;;;;;;;6.07;1.10;;;;;;;;;;5009891;28;20030;-58
2022/10/03 08:57:07;;;;;;;4.43;0.80;;;;;;;;;;5001066;28;20413;-57
2022/10/03 08:59:32;;;;;;;2.67;1.00;;;;;;;;;;4990206;28;20482;-58
2022/10/03 09:02:00;;;;;;;1.88;0.90;;;;;;;;;;4989737;28;20117;-57
2022/10/03 09:04:25;;;;;;;3.85;1.00;;;;;;;;;;4990227;28;20069;-58
2022/10/03 09:06:54;;;;;;;4.63;1.15;;;;;;;;;;4990738;28;20042;-57
2022/10/03 09:09:38;;;;;;;4.05;0.93;;;;;;;;;;4991195;28;20052;-57
2022/10/03 09:12:03;;;;;;;;;;;;;;;;;;4990809;28;20054;-57
2022/10/03 09:14:28;;;;;;;10.57;1.33;;;;;;;;;;4990493;28;19944;-61
2022/10/03 09:17:05;;;;;;;6.07;1.13;;;;;;;;;;4990955;28;20042;-57
2022/10/03 09:19:30;;;;;;;2.65;1.17;;;;;;;;;;4990550;28;20054;-58
2022/10/03 09:22:02;;;;;;;7.57;1.15;;;;;;;;;;4991059;28;20066;-57
2022/10/03 09:24:30;;;;;;;3.38;1.38;;;;;;;;;;4990126;28;20095;-57
2022/10/03 09:27:12;;;;;;;7.95;2.28;;;;;;;;;;4983827;28;20030;-57
2022/10/03 09:29:37;;;;;;;5.88;2.08;;;;;;;;;;4988500;28;20117;-57
2022/10/03 09:32:05;;;;;;;9.98;2.70;;;;;;;;;;4990366;28;20117;-61
2022/10/03 09:34:31;;;;;;;8.30;2.33;;;;;;;;;;4985651;28;20520;-57
2022/10/03 09:36:56;;;;;;;15.63;1.77;;;;;;;;;;4994491;28;20050;-58
2022/10/03 09:39:36;;;;;;;7.75;1.98;;;;;;;;;;4982822;28;20390;-57
2022/10/03 09:42:10;;;;;;;11.70;2.55;;;;;;;;;;4990074;28;20033;-57
2022/10/03 09:44:56;;;;;;;7.55;1.60;;;;;;;;;;4985651;28;20560;-58
2022/10/03 09:47:31;;;;;;;3.30;1.30;;;;;;;;;;4993401;28;20030;-57
2022/10/03 09:50:18;;;;;;;8.10;2.47;;;;;;;;;;4993699;28;20068;-57
2022/10/03 09:53:02;;;;;;;4.45;1.30;;;;;;;;;;4994135;28;20393;-59
2022/10/03 09:55:48;;;;;;;7.68;1.60;;;;;;;;;;4984863;28;20034;-58
2022/10/03 09:58:28;;;;;;;6.57;1.35;;;;;;;;;;4986148;28;20045;-57
2022/10/03 10:00:57;;;;;;;6.55;1.30;;;;;;;;;;4993911;28;20034;-57
2022/10/03 10:03:34;;;;;;;5.35;1.80;;;;;;;;;;4992311;28;20042;-58
2022/10/03 10:05:59;;;;;;;4.53;1.25;;;;;;;;;;4993554;28;20105;-57
2022/10/03 10:08:34;;;;;;;5.63;1.73;;;;;;;;;;4993407;28;20150;-58
2022/10/03 10:11:05;;;;;;;5.93;1.60;;;;;;;;;;4993362;28;20026;-59
2022/10/03 10:13:55;;;;;;;6.75;2.03;;;;;;;;;;4993429;28;20038;-58
2022/10/03 10:16:39;;;;;;;8.10;1.52;;;;;;;;;;4984125;28;20034;-58
2022/10/03 10:19:19;;;;;;;6.45;1.60;;;;;;;;;;4993155;28;20026;-58
2022/10/03 10:22:03;;;;;;;3.22;1.45;;;;;;;;;;4993390;28;20042;-58
2022/10/03 10:24:31;;;;;;;4.47;1.52;;;;;;;;;;4982215;28;20062;-59
2022/10/03 10:27:15;;;;;;;4.05;1.60;;;;;;;;;;4993578;28;20442;-58
2022/10/03 10:29:40;;;;;;;;;;;;;;;;;;4993212;28;20026;-58
2022/10/03 10:32:24;;;;;;;7.90;2.67;;;;;;;;;;4984496;28;19918;-64
2022/10/03 10:34:59;;;;;;;12.38;2.88;;;;;;;;;;4992426;28;20402;-58
2022/10/03 10:37:43;;;;;;;4.15;1.60;;;;;;;;;;4988596;28;20250;-56
2022/10/03 10:40:27;;;;;;;4.95;1.70;;;;;;;;;;4992096;28;20030;-57
2022/10/03 10:43:05;;;;;;;5.43;2.05;;;;;;;;;;4991993;28;20043;-56
2022/10/03 10:45:41;;;;;;;10.27;2.03;;;;;;;;;;4991566;28;20034;-57
2022/10/03 10:48:22;;;;;;;4.28;1.70;;;;;;;;;;4991924;28;20117;-56
2022/10/03 10:51:05;;;;;;;3.03;1.42;;;;;;;;;;4991981;28;20088;-57
2022/10/03 10:53:36;;;;;;;4.18;1.80;;;;;;;;;;4984269;28;20077;-56
2022/10/03 10:56:20;;;;;;;4.63;1.63;;;;;;;;;;4990028;28;20529;-58
2022/10/03 10:58:45;;;;;;;;;;;;;;;;;;4986367;28;20458;-57
2022/10/03 11:01:29;;;;;;;5.22;1.92;;;;;;;;;;4993254;28;20332;-57
2022/10/03 11:04:09;;;;;;;6.75;1.80;;;;;;;;;;4992308;28;20418;-56
2022/10/03 11:06:56;;;;;;;4.47;1.50;;;;;;;;;;4985070;28;20070;-57
2022/10/03 11:09:27;;;;;;;7.18;1.98;;;;;;;;;;4993299;28;20065;-58
2022/10/03 11:11:59;;;;;;;5.57;1.77;;;;;;;;;;4996039;28;20022;-56
2022/10/03 11:14:27;;;;;;;5.68;2.42;;;;;;;;;;4997794;28;20043;-58
2022/10/03 11:17:04;;;;;;;6.78;2.10;;;;;;;;;;4996586;28;20031;-57
2022/10/03 11:19:48;;;;;;;14.95;2.20;;;;;;;;;;4993116;28;20030;-57
2022/10/03 11:22:13;;;;;;;;;;;;;;;;;;4994322;28;20030;-57
2022/10/03 11:24:57;;;;;;;5.70;1.67;;;;;;;;;;4993240;28;19988;-56
2022/10/03 11:27:40;;;;;;;9.30;2.10;;;;;;;;;;4992312;28;20073;-56
2022/10/03 11:30:24;;;;;;;5.93;1.70;;;;;;;;;;4986908;28;20065;-56
2022/10/03 11:33:08;;;;;;;7.28;1.88;;;;;;;;;;4992101;28;20119;-56
2022/10/03 11:35:42;;;;;;;7.35;1.80;;;;;;;;;;4985648;28;20057;-58
2022/10/03 11:38:23;;;;;;;4.97;1.73;;;;;;;;;;4991094;28;20088;-56
2022/10/03 11:40:56;;;;;;;6.95;1.70;;;;;;;;;;4991269;28;20026;-63
2022/10/03 11:43:40;;;;;;;5.05;1.80;;;;;;;;;;4990547;28;20134;-57
2022/10/03 11:46:06;;;;;;;4.53;1.80;;;;;;;;;;4976478;28;20034;-57
2022/10/03 11:48:38;;;;;;;8.73;1.70;;;;;;;;;;4991330;28;20093;-56
2022/10/03 11:51:19;;;;;;;12.77;1.80;;;;;;;;;;4991033;28;20030;-56
2022/10/03 11:54:01;;;;;;;4.93;1.70;;;;;;;;;;4987155;28;20038;-57
2022/10/03 11:56:31;;;;;;;4.07;1.48;;;;;;;;;;4991090;28;20058;-57
2022/10/03 11:59:17;;;;;;;3.88;1.55;;;;;;;;;;4990633;28;20030;-57
2022/10/03 12:01:42;;;;;;;7.55;2.15;;;;;;;;;;4991470;28;20030;-56
2022/10/03 12:04:13;;;;;;;4.25;1.60;;;;;;;;;;4990135;28;20109;-56
2022/10/03 12:09:29;;;;;;;4.45;1.50;;;;;;;;;;4989757;28;20045;-57
2022/10/03 12:11:57;;;;;;;4.80;2.08;;;;;;;;;;4990705;28;20042;-56
2022/10/03 12:14:28;;;;;;;8.43;1.80;;;;;;;;;;4989865;28;20037;-57
2022/10/03 12:17:02;;;;;;;5.78;2.00;;;;;;;;;;4990414;28;20028;-57
2022/10/03 12:19:46;;;;;;;4.35;1.65;;;;;;;;;;4988980;28;20042;-57
2022/10/03 12:22:11;;;;;;;;;;;;;;;;;;4985816;28;20176;-56
2022/10/03 12:24:40;;;;;;;2.75;1.40;;;;;;;;;;4989864;28;20015;-56
2022/10/03 12:27:08;;;;;;;6.68;1.70;;;;;;;;;;4989825;28;20170;-57
2022/10/03 12:29:36;;;;;;;3.10;1.30;;;;;;;;;;4990014;28;20018;-57
2022/10/03 12:32:01;;;;;;;4.28;1.45;;;;;;;;;;4988956;28;20364;-58
2022/10/03 12:34:29;;;;;;;3.38;1.63;;;;;;;;;;4991977;28;20490;-59
2022/10/03 12:37:06;;;;;;;4.05;1.40;;;;;;;;;;4999706;28;20091;-66
2022/10/03 12:39:42;;;;;;;4.80;1.60;;;;;;;;;;4995790;28;20026;-57
2022/10/03 12:42:23;;;;;;;6.18;1.33;;;;;;;;;;4995434;28;20030;-58
2022/10/03 12:45:04;;;;;;;4.43;1.63;;;;;;;;;;4986940;28;20512;-58
2022/10/03 12:47:29;;;;;;;4.20;1.95;;;;;;;;;;4990377;28;20504;-58
2022/10/03 12:49:54;;;;;;;5.75;1.63;;;;;;;;;;4990435;28;20027;-57
2022/10/03 12:52:26;;;;;;;7.78;1.50;;;;;;;;;;4990093;28;20638;-57
2022/10/03 12:55:14;;;;;;;5.10;1.55;;;;;;;;;;4985972;28;20014;-70
2022/10/03 12:57:46;;;;;;;17.73;1.83;;;;;;;;;;4973942;28;20046;-57
2022/10/03 13:00:16;;;;;;;8.40;1.45;;;;;;;;;;4988877;28;20434;-59
2022/10/03 13:03:04;;;;;;;7.00;1.35;;;;;;;;;;4989563;28;20134;-59
2022/10/03 13:05:44;;;;;;;8.98;1.33;;;;;;;;;;4981506;28;20050;-58
2022/10/03 13:08:32;;;;;;;8.93;1.65;;;;;;;;;;4989217;28;20049;-58
2022/10/03 13:11:17;;;;;;;8.48;1.42;;;;;;;;;;4979580;28;20386;-60
2022/10/03 13:13:58;;;;;;;3.65;1.42;;;;;;;;;;4969976;28;20053;-58
2022/10/03 13:16:28;;;;;;;7.95;1.40;;;;;;;;;;4989773;28;20498;-59
2022/10/03 13:19:12;;;;;;;7.05;1.33;;;;;;;;;;4987477;28;20597;-60
2022/10/03 13:21:40;;;;;;;6.07;1.40;;;;;;;;;;4994809;28;20026;-58
2022/10/03 13:24:08;;;;;;;3.60;1.25;;;;;;;;;;4993620;28;20058;-59
2022/10/03 13:26:36;;;;;;;5.45;1.38;;;;;;;;;;4993324;28;20140;-59
2022/10/03 13:29:16;;;;;;;3.28;1.05;;;;;;;;;;4992458;28;20462;-58
2022/10/03 13:31:54;;;;;;;6.38;1.63;;;;;;;;;;4985041;28;20038;-58
2022/10/03 13:34:21;;;;;;;7.20;1.60;;;;;;;;;;4992514;28;20065;-58
2022/10/03 13:37:08;;;;;;;4.25;1.65;;;;;;;;;;4992367;28;20386;-59
2022/10/03 13:39:53;;;;;;;4.13;1.40;;;;;;;;;;4992206;28;20061;-59
2022/10/03 13:42:40;;;;;;;2.67;1.30;;;;;;;;;;4993182;28;20439;-58
2022/10/03 13:45:12;;;;;;;3.63;1.30;;;;;;;;;;4984794;28;20397;-58
2022/10/03 13:47:44;;;;;;;5.40;1.35;;;;;;;;;;4992978;28;20030;-58
2022/10/03 13:50:30;;;;;;;3.50;1.48;;;;;;;;;;4992840;28;20478;-58
2022/10/03 13:53:00;;;;;;;2.60;1.00;;;;;;;;;;4992891;28;20061;-59
2022/10/03 13:55:26;;;;;;;3.42;1.08;;;;;;;;;;4992003;28;20431;-59
2022/10/03 13:58:10;;;;;;;5.47;1.50;;;;;;;;;;4992571;28;20085;-57
2022/10/03 14:00:56;;;;;;;5.38;1.55;;;;;;;;;;4988369;28;20035;-58
2022/10/03 14:03:27;;;;;;;6.40;1.30;;;;;;;;;;4991293;28;20803;-59
2022/10/03 14:05:55;;;;;;;2.78;1.15;;;;;;;;;;4992570;28;20034;-59
2022/10/03 14:08:38;;;;;;;6.45;1.42;;;;;;;;;;4992006;28;20030;-58
2022/10/03 14:11:13;;;;;;;5.25;1.40;;;;;;;;;;4992959;28;20081;-59
2022/10/03 14:13:57;;;;;;;6.25;1.40;;;;;;;;;;4983231;28;20041;-59
2022/10/03 14:16:22;;;;;;;;;;;;;;;;;;4993642;28;20031;-58
2022/10/03 14:19:13;;;;;;;4.90;1.25;;;;;;;;;;4992651;28;19929;-58
2022/10/03 14:21:54;;;;;;;4.13;1.30;;;;;;;;;;4976778;28;20042;-59
2022/10/03 14:24:38;;;;;;;5.65;1.27;;;;;;;;;;4995759;28;20841;-58
2022/10/03 14:27:22;;;;;;;4.65;1.30;;;;;;;;;;4987581;28;20077;-58
2022/10/03 14:30:05;;;;;;;4.75;1.10;;;;;;;;;;4992142;28;20359;-58
2022/10/03 14:32:50;;;;;;;3.33;1.10;;;;;;;;;;4982456;28;20039;-58
2022/10/03 14:35:53;;;;;;;3.97;1.17;;;;;;;;;;4988304;28;20076;-58
2022/10/03 14:41:42;;;;;;;4.35;1.27;;;;;;;;;;4917018;29;20035;-59
2022/10/03 14:44:09;;;;;;;3.90;1.63;;;;;;;;;;4982785;28;20054;-58
2022/10/03 14:46:38;;;;;;;3.53;1.45;;;;;;;;;;4991151;28;20372;-59
2022/10/03 14:49:05;;;;;;;4.05;1.15;;;;;;;;;;4992102;28;20025;-59
2022/10/03 14:51:31;;;;;;;3.92;1.20;;;;;;;;;;4992321;28;20041;-58
2022/10/03 14:54:01;;;;;;;3.40;1.17;;;;;;;;;;4991488;28;20026;-59
2022/10/03 14:56:27;;;;;;;3.85;1.00;;;;;;;;;;4991189;28;20929;-59
2022/10/03 14:58:53;;;;;;;2.47;1.20;;;;;;;;;;4991593;28;20061;-59
2022/10/03 15:01:21;;;;;;;3.53;1.20;;;;;;;;;;4991757;28;20019;-60
2022/10/03 15:03:55;;;;;;;4.18;1.40;;;;;;;;;;4987575;28;20449;-58
2022/10/03 15:06:32;;;;;;;5.32;1.30;;;;;;;;;;4991756;28;20110;-58
2022/10/03 15:08:58;;;;;;;6.70;1.25;;;;;;;;;;4988681;28;20023;-58
2022/10/03 15:11:34;;;;;;;2.88;1.10;;;;;;;;;;4992269;28;20041;-54
2022/10/03 15:14:01;;;;;;;2.88;1.08;;;;;;;;;;4992068;28;20018;-58
2022/10/03 15:16:31;;;;;;;3.72;1.10;;;;;;;;;;4992234;28;20030;-59
2022/10/03 15:18:59;;;;;;;5.43;1.52;;;;;;;;;;4992249;28;20053;-58
2022/10/03 15:21:26;;;;;;;4.47;1.35;;;;;;;;;;4992138;28;20042;-71
2022/10/03 15:24:02;;;;;;;3.42;1.20;;;;;;;;;;4981466;28;20065;-60
2022/10/03 15:26:31;;;;;;;3.40;1.38;;;;;;;;;;4992022;28;20081;-58
2022/10/03 15:29:01;;;;;;;2.25;1.20;;;;;;;;;;4991917;28;20402;-58
2022/10/03 15:31:29;;;;;;;3.25;1.10;;;;;;;;;;4992212;28;20026;-59
2022/10/03 15:33:54;;;;;;;3.75;1.15;;;;;;;;;;4992403;28;20879;-58
2022/10/03 15:36:20;;;;;;;2.78;1.25;;;;;;;;;;4992494;28;20497;-58
2022/10/03 15:38:50;;;;;;;4.15;1.02;;;;;;;;;;4991805;28;20037;-58
2022/10/03 15:41:24;;;;;;;5.13;1.30;;;;;;;;;;4991728;28;20366;-58
2022/10/03 15:43:53;;;;;;;4.50;1.20;;;;;;;;;;4983030;28;20603;-59
2022/10/03 15:46:32;;;;;;;3.25;1.20;;;;;;;;;;4978868;28;20022;-59
2022/10/03 15:49:00;;;;;;;2.20;1.00;;;;;;;;;;4992437;28;20034;-58